Pointe-a-Pitre, Guadeloupe

10:14 PM AST on January 18, 2017 (GMT -0400)
Aéroport Raizet | | Change Station

Elev 16 ft 16.27 °N, 61.52 °W | Updated 31 seconds ago

Clear
Clear
68.7 °F
Feels Like 68.7 °F
N
0.7
Wind Variable Wind from NE
Gusts 1.6 mph

Today
High -- | Low -- °F
--% Chance of Precip.
Yesterday
High -- | Low -- °F
Precip. -- in
Pressure 30.01 in
Visibility -9999.0 miles
Clouds
Dew Point 66 °F
Humidity 92%
Rainfall 0.11 in
Snow Depth Not available.
6:38 AM 5:55 PM
Waning Gibbous, 58% visible
METAR TFFR 190200Z AUTO VRB02KT CAVOK 21/20 Q1016 TEMPO SCT018TCU
Pressure 30.01 in
Visibility -9999.0 miles
Clouds
Dew Point 66 °F
Humidity 92%
Rainfall 0.11 in
Snow Depth Not available.
6:38 AM 5:55 PM
Waning Gibbous, 58% visible
METAR TFFR 190200Z AUTO VRB02KT CAVOK 21/20 Q1016 TEMPO SCT018TCU

Get Your Daily Forecast Email!

Thanks for signing up!

Be on the lookout for a verification email in your inbox.

You'll start receiving the daily forecast at 8 AM.

×

10-Day Weather Forecast

No radar image for this location.
×

Almanac

Astronomy

Jan. 18, 2017 Rise Set
Actual Time
Civil Twilight
Nautical Twilight
Astronomical Twilight
Moon
Length of Visible Light
Length of Day
Tomorrow will be .
, % of the Moon is Illuminated

Today's Extremes

Country Highs Country Lows

Community

WunderPhotos

Upload Photos

1,962,540 photos uploaded!

WunderBlog® & News

Nearby

Air Quality

  Air Quality AQ Index Pollutant
Not available.

Snow Depth

Station Depth Elevation

Earthquake Activity

City Distance Mag. Time & Date
Minimum magnitude displayed is 2.5.

Coastal Water Temperatures

Place Temperature

Stations

Nearby Weather Stations

Station Location Temp. Windchill Dew Point Humidity Wind Precip. Elev Updated Type